Terminal Aerodrome Forecast
Issued by NWS Louisville, KY

Home | Current Version | Previous Version | Text Only | Print | Product List | Glossary Off
Versions: 1 2 3 4 5 6 7 8 9 10 11 12 13 14 15 16 17

000
FTUS43 KLMK 271700
TAFSDF
TAF
KSDF 271722Z 2718/2824 19009KT P6SM OVC015
     FM272000 21007KT 5SM -RA BR OVC015
     FM280300 VRB06KT 4SM -RA BR BKN008
     FM280600 33008KT 4SM -RA BR OVC008
     FM281400 33006KT 6SM BR OVC015=

USA.gov is the U.S. government's official web portal to all federal, state and local government web resources and services.